createdAt,value
2018-09-04T00:00:56.146Z,18.70
2018-09-04T00:03:24.535Z,18.80
2018-09-04T00:05:52.730Z,18.80
2018-09-04T00:08:21.207Z,18.80
2018-09-04T00:10:49.474Z,18.70
2018-09-04T00:13:17.709Z,18.70
2018-09-04T00:15:45.986Z,18.60
2018-09-04T00:18:14.324Z,18.60
2018-09-04T00:20:42.488Z,18.50
2018-09-04T00:23:10.892Z,18.50
2018-09-04T00:25:39.074Z,18.40
2018-09-04T00:28:07.440Z,18.40
2018-09-04T00:30:35.582Z,18.40
2018-09-04T00:33:03.820Z,18.30
2018-09-04T00:35:32.075Z,18.30
2018-09-04T00:38:00.415Z,18.30
2018-09-04T00:40:28.561Z,18.30
2018-09-04T00:42:56.947Z,18.30
2018-09-04T00:45:25.113Z,18.20
2018-09-04T00:47:53.444Z,18.20
2018-09-04T00:50:21.740Z,18.20
2018-09-04T00:52:49.974Z,18.20
2018-09-04T00:55:18.405Z,18.10
2018-09-04T00:57:46.606Z,18.10
2018-09-04T01:00:14.828Z,18.10
2018-09-04T01:02:43.328Z,18.10
2018-09-04T01:05:11.737Z,18.10
2018-09-04T01:07:40.070Z,18.00
2018-09-04T01:10:08.240Z,18.00
2018-09-04T01:12:36.700Z,17.90
2018-09-04T01:15:05.288Z,17.90
2018-09-04T01:17:33.708Z,17.90
2018-09-04T01:20:02.083Z,17.90
2018-09-04T01:22:30.516Z,17.80
2018-09-04T01:24:58.814Z,17.80
2018-09-04T01:27:27.039Z,17.70
2018-09-04T01:29:55.381Z,17.70
2018-09-04T01:32:23.493Z,17.70
2018-09-04T01:34:51.670Z,17.60
2018-09-04T01:37:19.988Z,17.60
2018-09-04T01:39:48.465Z,17.60
2018-09-04T01:42:16.559Z,17.60
2018-09-04T01:44:44.871Z,17.50
2018-09-04T01:47:12.973Z,17.50
2018-09-04T01:49:41.303Z,17.50
2018-09-04T01:52:09.453Z,17.50
2018-09-04T01:54:37.681Z,17.40
2018-09-04T01:57:05.817Z,17.40
2018-09-04T01:59:33.973Z,17.40
2018-09-04T02:02:02.142Z,17.30
2018-09-04T02:04:30.345Z,17.30
2018-09-04T02:06:58.526Z,17.30
2018-09-04T02:09:26.995Z,17.30
2018-09-04T02:11:55.327Z,17.20
2018-09-04T02:14:23.885Z,17.20
2018-09-04T02:16:52.191Z,17.20
2018-09-04T02:19:20.871Z,17.20
2018-09-04T02:21:49.502Z,17.10
2018-09-04T02:24:17.705Z,17.10
2018-09-04T02:26:45.920Z,17.10
2018-09-04T02:29:14.240Z,17.00
2018-09-04T02:31:42.570Z,17.00
2018-09-04T02:34:10.706Z,17.00
2018-09-04T02:36:38.909Z,16.90
2018-09-04T02:39:09.627Z,16.90
2018-09-04T02:41:37.941Z,16.90
2018-09-04T02:44:06.578Z,16.80
2018-09-04T02:46:35.723Z,16.80
2018-09-04T02:49:04.558Z,16.80
2018-09-04T02:51:32.797Z,16.80
2018-09-04T02:54:01.452Z,16.80
2018-09-04T02:56:29.800Z,16.70
2018-09-04T02:58:58.100Z,16.70
2018-09-04T03:01:26.710Z,16.70
2018-09-04T03:03:55.132Z,16.70
2018-09-04T03:06:23.320Z,16.70
2018-09-04T03:08:51.528Z,16.70
2018-09-04T03:11:19.710Z,16.80
2018-09-04T03:13:48.079Z,16.80
2018-09-04T03:16:16.540Z,16.80
2018-09-04T03:18:44.707Z,16.80
2018-09-04T03:21:12.824Z,16.80
2018-09-04T03:23:41.081Z,16.80
2018-09-04T03:26:09.323Z,16.80
2018-09-04T03:28:37.610Z,16.90
2018-09-04T03:31:06.159Z,17.00
2018-09-04T03:33:34.441Z,17.10
2018-09-04T03:36:02.625Z,17.10
2018-09-04T03:38:30.932Z,17.10
2018-09-04T03:40:59.228Z,17.20
2018-09-04T03:43:27.545Z,17.20
2018-09-04T03:45:56.167Z,17.20
2018-09-04T03:48:24.966Z,17.20
2018-09-04T03:50:53.323Z,17.30
2018-09-04T03:53:21.497Z,17.30
2018-09-04T03:55:49.886Z,17.40
2018-09-04T03:58:18.032Z,17.40
2018-09-04T04:00:46.365Z,17.40
2018-09-04T04:03:14.528Z,17.40
2018-09-04T04:05:42.711Z,17.40
2018-09-04T04:08:10.992Z,17.40
2018-09-04T04:10:39.290Z,17.40
2018-09-04T04:13:07.603Z,17.30
2018-09-04T04:15:35.993Z,17.30
2018-09-04T04:18:04.911Z,17.30
2018-09-04T04:20:33.078Z,17.20
2018-09-04T04:23:01.450Z,17.20
2018-09-04T04:25:30.547Z,17.10
2018-09-04T04:27:59.401Z,17.10
2018-09-04T04:30:27.723Z,17.10
2018-09-04T04:32:56.160Z,17.00
2018-09-04T04:35:24.385Z,17.00
2018-09-04T04:37:52.803Z,16.90
2018-09-04T04:40:21.895Z,16.90
2018-09-04T04:42:50.952Z,16.80
2018-09-04T04:45:19.147Z,16.80
2018-09-04T04:47:47.801Z,16.70
2018-09-04T04:50:16.915Z,16.70
2018-09-04T04:52:45.133Z,16.70
2018-09-04T04:55:14.278Z,16.70
2018-09-04T04:57:42.392Z,16.70
2018-09-04T05:00:10.653Z,16.70
2018-09-04T05:02:39.094Z,16.70
2018-09-04T05:05:07.368Z,16.70
2018-09-04T05:07:35.814Z,16.70
2018-09-04T05:10:04.066Z,16.80
2018-09-04T05:12:32.260Z,16.80
2018-09-04T05:15:00.443Z,16.80
2018-09-04T05:17:28.664Z,16.90
2018-09-04T05:19:56.805Z,17.00
2018-09-04T05:22:25.082Z,17.00
2018-09-04T05:24:53.328Z,17.00
2018-09-04T05:27:21.708Z,17.10
2018-09-04T05:29:49.890Z,17.10
2018-09-04T05:32:37.472Z,17.20
2018-09-04T05:35:06.056Z,17.20
2018-09-04T05:37:34.465Z,17.20
2018-09-04T05:40:02.564Z,17.20
2018-09-04T05:42:34.071Z,17.20
2018-09-04T05:45:02.935Z,17.30
2018-09-04T05:47:34.120Z,17.30
2018-09-04T05:50:03.212Z,17.30
2018-09-04T05:52:31.480Z,17.30
2018-09-04T05:54:59.762Z,17.30
2018-09-04T05:57:28.058Z,17.40
2018-09-04T05:59:56.226Z,17.50
2018-09-04T06:02:24.601Z,17.60
2018-09-04T06:04:52.812Z,17.70
2018-09-04T06:07:21.647Z,17.80
2018-09-04T06:09:49.766Z,17.90
2018-09-04T06:12:17.906Z,18.00
2018-09-04T06:14:46.037Z,18.10
2018-09-04T06:17:14.251Z,18.20
2018-09-04T06:19:42.599Z,18.30
2018-09-04T06:22:10.804Z,18.40
2018-09-04T06:24:39.132Z,18.60
2018-09-04T06:27:07.465Z,18.70
2018-09-04T06:29:35.643Z,18.80
2018-09-04T06:32:03.767Z,19.10
2018-09-04T06:34:33.623Z,19.30
2018-09-04T06:37:01.838Z,19.40
2018-09-04T06:39:29.978Z,19.50
2018-09-04T06:41:58.186Z,19.70
2018-09-04T06:44:26.470Z,19.90
2018-09-04T06:46:55.230Z,20.10
2018-09-04T06:49:23.469Z,20.40
2018-09-04T06:51:51.564Z,20.70
2018-09-04T06:54:19.818Z,21.10
2018-09-04T06:56:48.249Z,21.30
2018-09-04T06:59:16.371Z,21.50
2018-09-04T07:01:44.530Z,21.70
2018-09-04T07:04:12.918Z,21.70
2018-09-04T07:06:41.084Z,21.70
2018-09-04T07:09:11.343Z,21.60
2018-09-04T07:11:39.540Z,21.60
2018-09-04T07:14:08.036Z,21.60
2018-09-04T07:16:36.318Z,21.70
2018-09-04T07:19:05.253Z,21.70
2018-09-04T07:21:33.546Z,21.70
2018-09-04T07:24:01.920Z,21.70
2018-09-04T07:26:30.210Z,21.70
2018-09-04T07:28:58.628Z,22.00
2018-09-04T07:31:26.840Z,22.10
2018-09-04T07:33:55.014Z,22.20
2018-09-04T07:36:23.216Z,22.50
2018-09-04T07:38:51.592Z,22.80
2018-09-04T07:41:20.086Z,22.90
2018-09-04T07:43:48.313Z,22.90
2018-09-04T07:46:16.500Z,23.10
2018-09-04T07:48:45.294Z,23.20
2018-09-04T07:51:13.507Z,23.30
2018-09-04T07:53:41.861Z,23.30
2018-09-04T07:56:10.069Z,23.20
2018-09-04T07:58:38.266Z,23.00
2018-09-04T08:01:06.602Z,23.40
2018-09-04T08:03:35.017Z,23.80
2018-09-04T08:06:03.211Z,24.10
2018-09-04T08:08:31.557Z,24.90
2018-09-04T08:10:59.819Z,25.80
2018-09-04T08:13:27.965Z,26.90
2018-09-04T08:15:56.701Z,27.70
2018-09-04T08:18:24.886Z,29.30
2018-09-04T08:20:53.164Z,29.90
2018-09-04T08:23:21.304Z,30.50
2018-09-04T08:25:49.508Z,31.80
2018-09-04T08:28:17.667Z,33.20
2018-09-04T08:30:45.896Z,33.30
2018-09-04T08:33:14.205Z,33.60
2018-09-04T08:35:42.382Z,35.00
2018-09-04T08:38:11.281Z,35.60
2018-09-04T08:40:39.427Z,35.60
2018-09-04T08:43:07.727Z,35.90
2018-09-04T08:45:35.912Z,36.40
2018-09-04T08:48:08.726Z,37.10
2018-09-04T08:50:37.035Z,37.70
2018-09-04T08:53:05.209Z,37.60
2018-09-04T08:55:33.419Z,37.30
2018-09-04T08:58:01.655Z,37.60
2018-09-04T09:00:29.870Z,36.90
2018-09-04T09:02:58.074Z,37.70
2018-09-04T09:05:26.234Z,38.30
2018-09-04T09:07:54.481Z,38.30
2018-09-04T09:10:22.773Z,37.60
2018-09-04T09:12:50.937Z,37.70
2018-09-04T09:15:19.235Z,36.90
2018-09-04T09:17:47.475Z,36.30
2018-09-04T09:20:15.773Z,37.30
2018-09-04T09:22:43.903Z,38.10
2018-09-04T09:25:12.214Z,39.30
2018-09-04T09:27:40.478Z,39.80
2018-09-04T09:30:08.771Z,39.10
2018-09-04T09:32:37.010Z,39.60
2018-09-04T09:35:05.322Z,40.20
2018-09-04T09:37:33.466Z,39.20
2018-09-04T09:40:01.650Z,39.00
2018-09-04T09:42:29.868Z,38.80
2018-09-04T09:44:58.173Z,39.70
2018-09-04T09:47:26.452Z,39.20
2018-09-04T09:49:54.663Z,39.20
2018-09-04T09:52:22.917Z,40.20
2018-09-04T09:54:51.047Z,40.60
2018-09-04T09:57:19.443Z,41.30
2018-09-04T09:59:47.610Z,41.30
2018-09-04T10:02:19.884Z,41.10
2018-09-04T10:04:48.194Z,40.90
2018-09-04T10:07:16.426Z,40.50
2018-09-04T10:09:44.676Z,40.80
2018-09-04T10:12:12.981Z,40.90
2018-09-04T10:14:41.195Z,41.10
2018-09-04T10:17:09.613Z,41.50
2018-09-04T10:19:37.738Z,40.10
2018-09-04T10:22:05.949Z,40.30
2018-09-04T10:24:34.312Z,41.60
2018-09-04T10:27:02.541Z,42.50
2018-09-04T10:29:30.676Z,42.40
2018-09-04T10:31:58.849Z,42.60
2018-09-04T10:34:27.103Z,43.10
2018-09-04T10:36:55.332Z,44.10
2018-09-04T10:39:29.433Z,43.70
2018-09-04T10:41:57.697Z,44.30
2018-09-04T10:44:30.446Z,42.50
2018-09-04T10:46:58.637Z,43.70
2018-09-04T10:49:26.835Z,45.40
2018-09-04T10:51:55.082Z,46.60
2018-09-04T10:54:23.297Z,46.10
2018-09-04T10:56:51.521Z,45.70
2018-09-04T10:59:19.751Z,44.70
2018-09-04T11:01:48.075Z,45.00
2018-09-04T11:04:16.354Z,44.70
2018-09-04T11:06:44.544Z,46.00
2018-09-04T11:09:12.842Z,46.00
2018-09-04T11:11:41.932Z,47.00
2018-09-04T11:14:10.304Z,47.80
2018-09-04T11:16:39.317Z,47.70
2018-09-04T11:19:07.538Z,46.30
2018-09-04T11:21:35.763Z,45.30
2018-09-04T11:24:04.039Z,45.70
2018-09-04T11:26:32.864Z,45.90
2018-09-04T11:29:04.591Z,46.40
2018-09-04T11:31:32.832Z,46.40
2018-09-04T11:34:01.168Z,46.10
2018-09-04T11:36:29.305Z,46.30
2018-09-04T11:38:57.436Z,45.30
2018-09-04T11:41:25.697Z,41.10
2018-09-04T11:43:53.898Z,38.60
2018-09-04T11:46:22.205Z,37.00
2018-09-04T11:48:50.336Z,35.20
2018-09-04T11:51:18.722Z,33.60
2018-09-04T11:53:46.909Z,33.00
2018-09-04T11:56:19.045Z,32.30
2018-09-04T11:58:47.533Z,31.50
2018-09-04T12:01:17.385Z,30.90
2018-09-04T12:03:45.812Z,30.80
2018-09-04T12:06:14.184Z,30.90
2018-09-04T12:08:42.383Z,31.10
2018-09-04T12:11:10.619Z,32.00
2018-09-04T12:13:38.849Z,33.80
2018-09-04T12:16:07.016Z,35.80
2018-09-04T12:18:35.147Z,38.00
2018-09-04T12:21:08.679Z,39.60
2018-09-04T12:23:36.829Z,41.20
2018-09-04T12:26:06.521Z,42.70
2018-09-04T12:28:34.795Z,42.10
2018-09-04T12:31:03.343Z,43.30
2018-09-04T12:33:31.603Z,41.50
2018-09-04T12:35:59.766Z,41.60
2018-09-04T12:38:32.888Z,42.50
2018-09-04T12:41:06.553Z,42.80
2018-09-04T12:43:36.732Z,44.50
2018-09-04T12:46:05.214Z,45.00
2018-09-04T12:48:33.476Z,46.00
2018-09-04T12:51:02.458Z,46.80
2018-09-04T12:53:31.470Z,47.50
2018-09-04T12:55:59.656Z,48.00
2018-09-04T12:58:27.819Z,48.60
2018-09-04T13:00:56.762Z,47.50
2018-09-04T13:03:26.851Z,46.50
2018-09-04T13:05:55.208Z,43.30
2018-09-04T13:08:25.128Z,44.00
2018-09-04T13:10:53.401Z,43.60
2018-09-04T13:13:21.612Z,41.60
2018-09-04T13:15:51.668Z,40.30
2018-09-04T13:18:20.081Z,39.60
2018-09-04T13:20:48.310Z,39.50
2018-09-04T13:23:16.595Z,39.50
2018-09-04T13:25:44.790Z,39.10
2018-09-04T13:28:13.059Z,38.20
2018-09-04T13:30:41.311Z,36.70
2018-09-04T13:33:09.517Z,36.80
2018-09-04T13:35:37.905Z,37.90
2018-09-04T13:38:06.671Z,36.90
2018-09-04T13:40:34.817Z,36.10
2018-09-04T13:43:03.094Z,35.60
2018-09-04T13:45:31.332Z,36.50
2018-09-04T13:48:00.185Z,36.90
2018-09-04T13:50:28.663Z,37.30
2018-09-04T13:52:56.961Z,38.70
2018-09-04T13:55:25.223Z,38.90
2018-09-04T13:57:53.393Z,40.30
2018-09-04T14:00:22.596Z,40.70
2018-09-04T14:02:50.838Z,41.50
2018-09-04T14:05:19.054Z,40.90
2018-09-04T14:07:47.279Z,40.10
2018-09-04T14:10:15.436Z,40.30
2018-09-04T14:12:43.594Z,40.30
2018-09-04T14:15:11.844Z,40.30
2018-09-04T14:17:40.042Z,40.50
2018-09-04T14:20:08.277Z,40.90
2018-09-04T14:22:36.607Z,40.40
2018-09-04T14:25:04.837Z,38.60
2018-09-04T14:27:33.009Z,38.30
2018-09-04T14:30:16.459Z,37.50
2018-09-04T14:32:29.652Z,37.60
2018-09-04T14:34:57.837Z,37.60
2018-09-04T14:37:25.980Z,37.40
2018-09-04T14:39:55.587Z,36.80
2018-09-04T14:42:22.433Z,36.20
2018-09-04T14:44:50.716Z,35.70
2018-09-04T14:47:18.856Z,35.00
2018-09-04T14:49:47.082Z,34.20
2018-09-04T14:52:15.299Z,33.30
2018-09-04T14:54:44.204Z,32.40
2018-09-04T14:57:12.349Z,31.80
2018-09-04T14:59:40.633Z,31.40
2018-09-04T15:02:08.873Z,31.40
2018-09-04T15:04:37.089Z,31.30
2018-09-04T15:07:05.339Z,31.10
2018-09-04T15:09:33.558Z,30.70
2018-09-04T15:12:01.975Z,30.50
2018-09-04T15:14:30.178Z,30.30
2018-09-04T15:16:59.387Z,30.20
2018-09-04T15:19:27.912Z,30.10
2018-09-04T15:21:56.107Z,30.20
2018-09-04T15:24:24.232Z,30.10
2018-09-04T15:26:52.532Z,30.10
2018-09-04T15:29:20.689Z,30.20
2018-09-04T15:31:48.835Z,30.30
2018-09-04T15:34:17.052Z,30.40
2018-09-04T15:36:45.261Z,30.40
2018-09-04T15:39:13.549Z,30.30
2018-09-04T15:41:41.751Z,30.30
2018-09-04T15:44:10.018Z,30.10
2018-09-04T15:46:38.205Z,29.70
2018-09-04T15:49:11.973Z,29.60
2018-09-04T15:51:40.077Z,29.30
2018-09-04T15:54:08.201Z,29.10
2018-09-04T15:56:36.489Z,28.90
2018-09-04T15:59:04.793Z,28.80
2018-09-04T16:01:33.029Z,28.60
2018-09-04T16:04:01.275Z,28.50
2018-09-04T16:06:29.484Z,28.30
2018-09-04T16:08:57.845Z,28.30
2018-09-04T16:11:26.051Z,28.20
2018-09-04T16:13:54.159Z,28.20
2018-09-04T16:16:22.375Z,28.20
2018-09-04T16:18:50.645Z,28.10
2018-09-04T16:21:19.520Z,28.00
2018-09-04T16:23:47.685Z,27.90
2018-09-04T16:26:15.884Z,27.80
2018-09-04T16:28:44.018Z,27.60
2018-09-04T16:31:12.165Z,27.50
2018-09-04T16:33:40.412Z,27.30
2018-09-04T16:36:08.684Z,27.20
2018-09-04T16:38:36.915Z,27.10
2018-09-04T16:41:05.171Z,27.00
2018-09-04T16:43:33.405Z,26.80
2018-09-04T16:46:01.686Z,26.70
2018-09-04T16:48:30.894Z,26.50
2018-09-04T16:51:00.366Z,26.40
2018-09-04T16:53:30.442Z,26.30
2018-09-04T16:55:59.507Z,26.20
2018-09-04T16:58:27.746Z,26.00
2018-09-04T17:00:55.904Z,25.90
2018-09-04T17:03:24.314Z,25.80
2018-09-04T17:05:52.562Z,25.70
2018-09-04T17:08:20.798Z,25.60
2018-09-04T17:10:49.080Z,25.50
2018-09-04T17:13:17.270Z,25.40
2018-09-04T17:15:45.464Z,25.30
2018-09-04T17:18:13.702Z,25.20
2018-09-04T17:20:41.933Z,25.10
2018-09-04T17:23:10.139Z,25.00
2018-09-04T17:25:38.452Z,24.90
2018-09-04T17:28:06.674Z,24.90
2018-09-04T17:30:34.892Z,24.80
2018-09-04T17:33:03.201Z,24.70
2018-09-04T17:35:31.486Z,24.60
2018-09-04T17:37:59.746Z,24.50
2018-09-04T17:40:27.976Z,24.40
2018-09-04T17:42:56.323Z,24.30
2018-09-04T17:45:24.508Z,24.20
2018-09-04T17:47:52.758Z,24.10
2018-09-04T17:50:20.910Z,24.00
2018-09-04T17:52:49.045Z,23.90
2018-09-04T17:55:17.272Z,23.80
2018-09-04T17:57:45.538Z,23.80
2018-09-04T18:00:13.761Z,23.70
2018-09-04T18:02:41.990Z,23.70
2018-09-04T18:05:10.268Z,23.60
2018-09-04T18:08:09.540Z,23.50
2018-09-04T18:10:37.692Z,23.40
2018-09-04T18:13:05.885Z,23.30
2018-09-04T18:15:34.086Z,23.30
2018-09-04T18:18:02.247Z,23.20
2018-09-04T18:20:30.494Z,23.10
2018-09-04T18:22:58.833Z,23.10
2018-09-04T18:25:27.110Z,23.00
2018-09-04T18:27:55.356Z,23.00
2018-09-04T18:30:23.575Z,23.00
2018-09-04T18:32:51.828Z,22.90
2018-09-04T18:35:20.045Z,22.80
2018-09-04T18:37:48.249Z,22.80
2018-09-04T18:40:16.512Z,22.70
2018-09-04T18:42:44.749Z,22.60
2018-09-04T18:45:30.369Z,22.60
2018-09-04T18:47:58.661Z,22.60
2018-09-04T18:50:26.930Z,22.50
2018-09-04T18:52:55.155Z,22.50
2018-09-04T18:55:23.362Z,22.50
2018-09-04T18:57:51.517Z,22.30
2018-09-04T19:00:19.833Z,22.30
2018-09-04T19:02:48.976Z,22.30
2018-09-04T19:05:17.368Z,22.20
2018-09-04T19:07:46.541Z,22.20
2018-09-04T19:10:15.063Z,22.10
2018-09-04T19:12:43.370Z,22.00
2018-09-04T19:15:11.732Z,22.00
2018-09-04T19:17:40.573Z,21.90
2018-09-04T19:20:09.363Z,21.90
2018-09-04T19:22:37.607Z,21.80
2018-09-04T19:25:05.962Z,21.80
2018-09-04T19:27:34.166Z,21.80
2018-09-04T19:30:02.980Z,21.70
2018-09-04T19:32:31.164Z,21.70
2018-09-04T19:34:59.430Z,21.70
2018-09-04T19:37:27.712Z,21.60
2018-09-04T19:39:55.992Z,21.50
2018-09-04T19:42:24.527Z,21.50
2018-09-04T19:44:52.836Z,21.50
2018-09-04T19:47:21.146Z,21.40
2018-09-04T19:49:49.745Z,21.30
2018-09-04T19:52:18.138Z,21.30
2018-09-04T19:54:46.526Z,21.20
2018-09-04T19:57:15.420Z,21.10
2018-09-04T19:59:43.718Z,21.10
2018-09-04T20:02:11.992Z,21.00
2018-09-04T20:04:40.140Z,20.90
2018-09-04T20:07:08.590Z,20.90
2018-09-04T20:09:37.150Z,20.90
2018-09-04T20:12:05.555Z,20.80
2018-09-04T20:14:34.402Z,20.80
2018-09-04T20:17:02.596Z,20.70
2018-09-04T20:19:30.732Z,20.70
2018-09-04T20:21:59.007Z,20.80
2018-09-04T20:24:27.224Z,20.70
2018-09-04T20:26:55.501Z,20.60
2018-09-04T20:29:23.816Z,20.60
2018-09-04T20:31:52.077Z,20.50
2018-09-04T20:34:20.441Z,20.50
2018-09-04T20:36:48.647Z,20.50
2018-09-04T20:39:17.021Z,20.50
2018-09-04T20:41:45.231Z,20.40
2018-09-04T20:44:13.595Z,20.30
2018-09-04T20:46:42.859Z,20.30
2018-09-04T20:49:11.376Z,20.30
2018-09-04T20:51:39.627Z,20.30
2018-09-04T20:54:08.038Z,20.20
2018-09-04T20:56:36.386Z,20.20
2018-09-04T20:59:21.937Z,20.20
2018-09-04T21:02:07.401Z,20.20
2018-09-04T21:04:52.632Z,20.10
2018-09-04T21:07:24.709Z,20.00
2018-09-04T21:09:58.525Z,20.00
2018-09-04T21:12:27.585Z,19.90
2018-09-04T21:14:56.017Z,19.90
2018-09-04T21:17:24.398Z,19.80
2018-09-04T21:19:52.707Z,19.90
2018-09-04T21:22:20.916Z,19.90
2018-09-04T21:24:49.048Z,19.80
2018-09-04T21:27:17.437Z,19.80
2018-09-04T21:29:45.738Z,19.80
2018-09-04T21:32:14.765Z,19.80
2018-09-04T21:34:42.997Z,19.80
2018-09-04T21:37:12.324Z,19.80
2018-09-04T21:39:40.564Z,19.80
2018-09-04T21:42:08.828Z,19.80
2018-09-04T21:44:37.230Z,19.80
2018-09-04T21:47:05.628Z,19.80
2018-09-04T21:49:33.932Z,19.80
2018-09-04T21:52:02.155Z,19.80
2018-09-04T21:54:30.409Z,19.80
2018-09-04T21:57:02.567Z,19.80
2018-09-04T21:59:31.044Z,19.80
2018-09-04T22:01:59.256Z,19.80
2018-09-04T22:04:27.569Z,19.80
2018-09-04T22:06:55.744Z,19.70
2018-09-04T22:09:23.928Z,19.70
2018-09-04T22:11:52.347Z,19.70
2018-09-04T22:14:20.559Z,19.70
2018-09-04T22:16:49.110Z,19.70
2018-09-04T22:19:17.319Z,19.70
2018-09-04T22:21:45.539Z,19.60
2018-09-04T22:24:14.245Z,19.60
2018-09-04T22:26:42.912Z,19.60
2018-09-04T22:29:11.183Z,19.60
2018-09-04T22:31:39.415Z,19.60
2018-09-04T22:34:07.745Z,19.50
2018-09-04T22:36:36.077Z,19.50
2018-09-04T22:39:06.298Z,19.50
2018-09-04T22:41:35.089Z,19.40
2018-09-04T22:44:03.479Z,19.40
2018-09-04T22:46:32.368Z,19.40
2018-09-04T22:49:00.513Z,19.30
2018-09-04T22:51:35.785Z,19.30
2018-09-04T22:54:05.439Z,19.30
2018-09-04T22:56:34.097Z,19.20
2018-09-04T22:59:02.385Z,19.20
2018-09-04T23:01:31.034Z,19.20
2018-09-04T23:03:59.168Z,19.20
2018-09-04T23:06:27.386Z,19.10
2018-09-04T23:08:55.639Z,19.10
2018-09-04T23:11:24.059Z,19.00
2018-09-04T23:13:52.435Z,19.00
2018-09-04T23:16:20.761Z,19.00
2018-09-04T23:18:56.098Z,19.00
2018-09-04T23:21:24.399Z,18.90
2018-09-04T23:23:52.617Z,18.90
2018-09-04T23:26:20.963Z,18.80
2018-09-04T23:28:49.259Z,18.80
2018-09-04T23:31:17.382Z,18.80
2018-09-04T23:33:45.756Z,18.80
2018-09-04T23:36:14.520Z,18.70
2018-09-04T23:38:42.740Z,18.70
2018-09-04T23:41:10.939Z,18.70
2018-09-04T23:43:39.114Z,18.70
2018-09-04T23:46:07.255Z,18.70
2018-09-04T23:48:35.570Z,18.70
2018-09-04T23:51:03.756Z,18.70
2018-09-04T23:53:32.098Z,18.70
2018-09-04T23:56:00.915Z,18.70
2018-09-04T23:58:29.207Z,18.70
